createdAt,value
2023-03-22T00:02:13.938Z,2.75
2023-03-22T00:04:43.602Z,2.55
2023-03-22T00:07:10.328Z,2.58
2023-03-22T00:09:37.046Z,1.20
2023-03-22T00:12:03.997Z,1.63
2023-03-22T00:14:30.745Z,1.27
2023-03-22T00:16:57.547Z,1.88
2023-03-22T00:19:24.336Z,2.58
2023-03-22T00:21:51.471Z,2.22
2023-03-22T00:24:18.169Z,1.83
2023-03-22T00:26:47.197Z,1.70
2023-03-22T00:29:13.944Z,1.90
2023-03-22T00:31:41.241Z,1.77
2023-03-22T00:34:07.988Z,2.33
2023-03-22T00:36:34.715Z,2.15
2023-03-22T00:39:01.404Z,2.03
2023-03-22T00:41:28.243Z,1.63
2023-03-22T00:43:54.911Z,2.70
2023-03-22T00:46:21.952Z,2.35
2023-03-22T00:48:49.012Z,1.88
2023-03-22T00:51:16.139Z,2.25
2023-03-22T00:53:43.751Z,2.15
2023-03-22T00:56:14.333Z,2.28
2023-03-22T00:58:42.126Z,1.65
2023-03-22T01:01:08.929Z,1.95
2023-03-22T01:03:35.898Z,2.30
2023-03-22T01:06:02.613Z,2.67
2023-03-22T01:08:33.218Z,2.00
2023-03-22T01:11:00.860Z,3.17
2023-03-22T01:13:27.747Z,1.38
2023-03-22T01:15:54.523Z,1.67
2023-03-22T01:18:21.278Z,1.85
2023-03-22T01:20:48.004Z,1.73
2023-03-22T01:23:14.753Z,2.08
2023-03-22T01:25:41.463Z,1.85
2023-03-22T01:28:08.700Z,2.20
2023-03-22T01:30:35.521Z,2.30
2023-03-22T01:33:02.340Z,2.63
2023-03-22T01:35:29.078Z,3.10
2023-03-22T01:37:55.812Z,2.25
2023-03-22T01:40:22.548Z,1.90
2023-03-22T01:42:49.245Z,1.67
2023-03-22T01:45:19.250Z,1.83
2023-03-22T01:47:47.898Z,2.30
2023-03-22T01:50:14.750Z,2.58
2023-03-22T01:52:41.435Z,2.20
2023-03-22T01:55:09.388Z,2.70
2023-03-22T01:57:37.911Z,2.08
2023-03-22T02:00:10.296Z,3.03
2023-03-22T02:02:37.044Z,2.22
2023-03-22T02:05:04.202Z,3.28
2023-03-22T02:07:31.844Z,2.72
2023-03-22T02:09:59.259Z,1.98
2023-03-22T02:12:50.496Z,2.47
2023-03-22T02:15:24.101Z,2.03
2023-03-22T02:18:28.935Z,2.67
2023-03-22T02:23:50.101Z,2.45
2023-03-22T02:26:46.843Z,2.38
2023-03-22T02:29:16.347Z,1.95
2023-03-22T02:31:58.484Z,1.98
2023-03-22T02:34:40.339Z,2.55
2023-03-22T02:37:27.320Z,2.70
2023-03-22T02:40:05.524Z,4.85
2023-03-22T02:42:59.514Z,3.88
2023-03-22T02:45:30.148Z,2.05
2023-03-22T02:48:07.179Z,2.10
2023-03-22T02:50:53.905Z,3.45
2023-03-22T02:54:02.925Z,2.70
2023-03-22T02:56:34.716Z,2.22
2023-03-22T02:59:03.223Z,2.00
2023-03-22T03:01:50.034Z,1.90
2023-03-22T03:04:21.235Z,3.85
2023-03-22T03:06:48.857Z,2.55
2023-03-22T03:09:19.634Z,2.63
2023-03-22T03:11:50.866Z,3.17
2023-03-22T03:14:22.308Z,3.08
2023-03-22T03:16:53.790Z,1.85
2023-03-22T03:19:25.952Z,1.92
2023-03-22T03:21:58.961Z,2.00
2023-03-22T03:24:40.165Z,2.17
2023-03-22T03:27:17.734Z,2.65
2023-03-22T03:29:54.687Z,2.40
2023-03-22T03:32:52.618Z,2.42
2023-03-22T03:35:26.087Z,2.50
2023-03-22T03:38:07.864Z,2.30
2023-03-22T03:40:37.594Z,2.20
2023-03-22T03:43:04.674Z,2.38
2023-03-22T03:45:31.449Z,1.98
2023-03-22T03:48:00.311Z,1.70
2023-03-22T03:50:27.097Z,2.00
2023-03-22T03:52:54.415Z,2.70
2023-03-22T03:55:21.726Z,2.25
2023-03-22T03:57:48.466Z,2.83
2023-03-22T04:00:15.576Z,1.70
2023-03-22T04:02:42.654Z,2.38
2023-03-22T04:05:11.018Z,1.42
2023-03-22T04:07:37.854Z,1.98
2023-03-22T04:10:05.992Z,2.78
2023-03-22T04:12:33.157Z,2.97
2023-03-22T04:14:59.932Z,1.70
2023-03-22T04:17:29.105Z,1.58
2023-03-22T04:19:58.970Z,1.05
2023-03-22T04:22:26.319Z,1.65
2023-03-22T04:24:53.016Z,2.03
2023-03-22T04:27:20.568Z,1.48
2023-03-22T04:29:51.360Z,1.25
2023-03-22T04:32:22.876Z,0.93
2023-03-22T04:34:50.325Z,1.38
2023-03-22T04:37:17.120Z,1.63
2023-03-22T04:39:43.906Z,1.20
2023-03-22T04:42:10.735Z,1.13
2023-03-22T04:44:37.474Z,2.78
2023-03-22T04:47:04.273Z,0.90
2023-03-22T04:49:31.477Z,0.95
2023-03-22T04:51:58.227Z,1.02
2023-03-22T04:54:25.130Z,1.70
2023-03-22T04:56:51.812Z,0.93
2023-03-22T04:59:20.306Z,1.30
2023-03-22T05:01:50.663Z,0.98
2023-03-22T05:04:18.118Z,1.00
2023-03-22T05:06:45.235Z,0.90
2023-03-22T05:09:12.019Z,1.45
2023-03-22T05:11:38.734Z,0.90
2023-03-22T05:14:05.750Z,1.30
2023-03-22T05:16:32.868Z,0.80
2023-03-22T05:19:02.475Z,0.80
2023-03-22T05:21:36.601Z,1.10
2023-03-22T05:24:03.493Z,0.88
2023-03-22T05:26:30.438Z,1.58
2023-03-22T05:28:57.191Z,0.90
2023-03-22T05:31:24.013Z,0.73
2023-03-22T05:33:52.038Z,0.90
2023-03-22T05:36:19.347Z,1.95
2023-03-22T05:38:46.610Z,1.25
2023-03-22T05:41:13.511Z,1.20
2023-03-22T05:43:40.807Z,0.93
2023-03-22T05:46:08.738Z,1.20
2023-03-22T05:48:36.425Z,0.93
2023-03-22T05:51:06.784Z,1.67
2023-03-22T05:53:33.549Z,1.02
2023-03-22T05:56:03.397Z,1.05
2023-03-22T05:58:30.870Z,1.02
2023-03-22T06:01:01.040Z,0.88
2023-03-22T06:03:28.419Z,0.80
2023-03-22T06:05:55.171Z,1.13
2023-03-22T06:08:24.767Z,1.75
2023-03-22T06:10:53.324Z,1.20
2023-03-22T06:13:20.373Z,1.33
2023-03-22T06:15:47.142Z,0.73
2023-03-22T06:18:13.994Z,1.35
2023-03-22T06:20:40.977Z,0.93
2023-03-22T06:23:09.169Z,1.13
2023-03-22T06:25:35.982Z,0.77
2023-03-22T06:28:02.769Z,1.23
2023-03-22T06:30:29.493Z,1.60
2023-03-22T06:33:00.438Z,1.48
2023-03-22T06:35:27.664Z,0.90
2023-03-22T06:37:54.460Z,1.13
2023-03-22T06:40:21.266Z,1.52
2023-03-22T06:42:48.314Z,1.30
2023-03-22T06:45:16.507Z,1.00
2023-03-22T06:47:44.167Z,1.10
2023-03-22T06:50:11.165Z,0.98
2023-03-22T06:52:37.968Z,1.10
2023-03-22T06:55:04.997Z,1.45
2023-03-22T06:57:31.736Z,1.27
2023-03-22T06:59:58.459Z,1.10
2023-03-22T07:02:25.178Z,1.58
2023-03-22T07:04:51.860Z,1.20
2023-03-22T07:07:18.589Z,3.42
2023-03-22T07:09:45.366Z,1.00
2023-03-22T07:12:12.167Z,1.20
2023-03-22T07:14:39.572Z,1.10
2023-03-22T07:17:06.348Z,2.88
2023-03-22T07:19:33.282Z,1.73
2023-03-22T07:22:00.026Z,3.05
2023-03-22T07:24:26.747Z,2.90
2023-03-22T07:26:53.504Z,2.20
2023-03-22T07:29:20.183Z,2.15
2023-03-22T07:31:46.909Z,1.60
2023-03-22T07:34:13.802Z,1.83
2023-03-22T07:36:40.655Z,1.75
2023-03-22T07:39:07.432Z,2.00
2023-03-22T07:41:34.204Z,2.00
2023-03-22T07:44:16.666Z,2.10
2023-03-22T07:46:44.360Z,2.10
2023-03-22T07:49:11.138Z,2.35
2023-03-22T07:51:37.873Z,2.00
2023-03-22T07:54:07.142Z,2.17
2023-03-22T07:56:34.429Z,3.30
2023-03-22T07:59:01.259Z,1.90
2023-03-22T08:01:27.968Z,2.08
2023-03-22T08:03:54.769Z,2.25
2023-03-22T08:06:21.612Z,3.10
2023-03-22T08:08:48.342Z,1.92
2023-03-22T08:11:15.605Z,3.00
2023-03-22T08:13:42.315Z,2.28
2023-03-22T08:16:09.080Z,2.88
2023-03-22T08:18:36.089Z,2.85
2023-03-22T08:21:02.850Z,2.22
2023-03-22T08:23:40.994Z,3.38
2023-03-22T08:26:09.632Z,2.40
2023-03-22T08:28:36.477Z,2.78
2023-03-22T08:31:15.796Z,2.60
2023-03-22T08:33:42.868Z,2.97
2023-03-22T08:36:12.034Z,1.70
2023-03-22T08:38:38.691Z,2.20
2023-03-22T08:41:05.465Z,2.08
2023-03-22T08:43:32.171Z,1.33
2023-03-22T08:45:58.945Z,1.75
2023-03-22T08:48:29.065Z,1.67
2023-03-22T08:50:56.092Z,1.33
2023-03-22T08:53:23.001Z,1.23
2023-03-22T08:55:49.807Z,1.10
2023-03-22T08:58:18.571Z,1.02
2023-03-22T09:00:49.063Z,1.00
2023-03-22T09:03:16.645Z,1.88
2023-03-22T09:05:43.421Z,1.40
2023-03-22T09:08:18.201Z,1.10
2023-03-22T09:10:51.614Z,1.48
2023-03-22T09:13:18.910Z,1.00
2023-03-22T09:15:45.928Z,1.40
2023-03-22T09:18:12.934Z,1.48
2023-03-22T09:20:40.051Z,1.17
2023-03-22T09:23:07.151Z,1.20
2023-03-22T09:25:33.925Z,1.13
2023-03-22T09:28:00.649Z,1.10
2023-03-22T09:30:27.400Z,1.20
2023-03-22T09:32:54.416Z,1.10
2023-03-22T09:35:21.364Z,1.63
2023-03-22T09:37:49.535Z,1.65
2023-03-22T09:40:17.346Z,1.52
2023-03-22T09:42:48.354Z,1.20
2023-03-22T09:45:46.519Z,1.33
2023-03-22T09:48:35.968Z,1.20
2023-03-22T09:51:03.665Z,1.20
2023-03-22T09:53:30.619Z,0.75
2023-03-22T09:56:00.853Z,0.80
2023-03-22T09:58:43.715Z,0.60
2023-03-22T10:01:48.385Z,0.75
2023-03-22T10:04:36.838Z,1.45
2023-03-22T10:07:10.202Z,1.08
2023-03-22T10:10:12.270Z,1.30
2023-03-22T10:13:09.385Z,0.55
2023-03-22T10:15:41.218Z,1.20
2023-03-22T10:18:11.746Z,1.63
2023-03-22T10:21:06.226Z,1.25
2023-03-22T10:26:02.628Z,0.50
2023-03-22T10:28:32.466Z,0.93
2023-03-22T10:30:59.265Z,1.08
2023-03-22T10:33:38.999Z,0.70
2023-03-22T10:36:08.271Z,0.73
2023-03-22T10:38:35.244Z,0.70
2023-03-22T10:41:01.973Z,0.63
2023-03-22T10:43:36.883Z,0.80
2023-03-22T10:46:05.053Z,1.02
2023-03-22T10:48:39.668Z,0.55
2023-03-22T10:51:06.550Z,0.65
2023-03-22T10:53:58.234Z,0.50
2023-03-22T10:56:25.122Z,1.10
2023-03-22T10:58:51.932Z,0.90
2023-03-22T11:01:27.116Z,0.60
2023-03-22T11:03:57.549Z,0.50
2023-03-22T11:06:35.330Z,0.70
2023-03-22T11:09:18.259Z,0.70
2023-03-22T11:11:53.546Z,1.43
2023-03-22T11:14:37.028Z,0.75
2023-03-22T11:17:06.641Z,0.77
2023-03-22T11:19:37.200Z,1.70
2023-03-22T11:22:06.514Z,0.63
2023-03-22T11:24:33.703Z,0.82
2023-03-22T11:27:24.290Z,0.90
2023-03-22T11:29:52.594Z,0.95
2023-03-22T11:32:27.629Z,0.95
2023-03-22T11:35:05.035Z,0.90
2023-03-22T11:37:31.846Z,1.00
2023-03-22T11:40:02.193Z,1.02
2023-03-22T11:42:28.957Z,0.70
2023-03-22T11:44:56.057Z,0.82
2023-03-22T11:47:23.382Z,0.77
2023-03-22T11:49:50.908Z,0.70
2023-03-22T11:52:26.191Z,0.60
2023-03-22T11:54:52.992Z,0.57
2023-03-22T11:57:27.745Z,0.43
2023-03-22T12:00:01.059Z,0.40
2023-03-22T12:02:33.381Z,0.38
2023-03-22T12:05:11.307Z,0.40
2023-03-22T12:07:38.106Z,0.30
2023-03-22T12:10:06.827Z,0.20
2023-03-22T12:12:37.165Z,0.45
2023-03-22T12:15:11.039Z,0.90
2023-03-22T12:17:54.913Z,0.55
2023-03-22T12:20:33.510Z,0.52
2023-03-22T12:23:00.235Z,0.80
2023-03-22T12:25:34.116Z,0.30
2023-03-22T12:28:07.173Z,0.40
2023-03-22T12:30:43.229Z,0.50
2023-03-22T12:33:15.787Z,0.25
2023-03-22T12:35:44.274Z,0.40
2023-03-22T12:38:42.468Z,0.63
2023-03-22T12:41:14.954Z,0.50
2023-03-22T12:43:59.189Z,0.55
2023-03-22T12:46:31.770Z,0.40
2023-03-22T12:49:21.682Z,0.50
2023-03-22T12:51:48.478Z,0.63
2023-03-22T12:54:15.321Z,0.82
2023-03-22T12:56:45.992Z,0.93
2023-03-22T12:59:18.294Z,0.70
2023-03-22T13:02:06.454Z,1.08
2023-03-22T13:04:51.328Z,0.73
2023-03-22T13:07:39.107Z,0.65
2023-03-22T13:10:31.027Z,0.68
2023-03-22T13:13:22.895Z,1.15
2023-03-22T13:15:56.792Z,0.80
2023-03-22T13:18:38.703Z,0.90
2023-03-22T13:21:16.452Z,1.10
2023-03-22T13:23:55.124Z,1.23
2023-03-22T13:26:33.297Z,0.80
2023-03-22T13:29:10.027Z,1.02
2023-03-22T13:31:44.923Z,1.33
2023-03-22T13:34:19.679Z,1.00
2023-03-22T13:36:50.067Z,1.75
2023-03-22T13:39:16.858Z,1.50
2023-03-22T13:41:45.999Z,2.15
2023-03-22T13:44:21.025Z,1.40
2023-03-22T13:46:51.711Z,2.83
2023-03-22T13:49:45.787Z,1.40
2023-03-22T13:52:24.414Z,1.88
2023-03-22T13:54:52.659Z,1.77
2023-03-22T13:57:46.398Z,1.85
2023-03-22T14:00:41.281Z,2.17
2023-03-22T14:03:18.125Z,3.03
2023-03-22T14:05:46.056Z,2.50
2023-03-22T14:08:21.993Z,3.05
2023-03-22T14:11:34.201Z,2.22
2023-03-22T14:14:05.064Z,2.35
2023-03-22T14:16:46.962Z,3.72
2023-03-22T14:19:22.304Z,2.40
